sensor_id;sensor_type;location;lat;lon;timestamp;temperature;humidity
12426;DHT22;6277;49.824;9.562;2022-09-28T00:01:50;11.70;71.80
12426;DHT22;6277;49.824;9.562;2022-09-28T00:04:16;11.70;71.70
12426;DHT22;6277;49.824;9.562;2022-09-28T00:06:45;11.70;71.70
12426;DHT22;6277;49.824;9.562;2022-09-28T00:09:12;11.70;71.80
12426;DHT22;6277;49.824;9.562;2022-09-28T00:11:38;11.80;71.80
12426;DHT22;6277;49.824;9.562;2022-09-28T00:14:03;11.80;71.90
12426;DHT22;6277;49.824;9.562;2022-09-28T00:16:33;11.80;71.90
12426;DHT22;6277;49.824;9.562;2022-09-28T00:19:00;11.90;72.00
12426;DHT22;6277;49.824;9.562;2022-09-28T00:21:28;11.90;72.00
12426;DHT22;6277;49.824;9.562;2022-09-28T00:23:57;12.00;72.10
12426;DHT22;6277;49.824;9.562;2022-09-28T00:31:41;12.10;72.00
12426;DHT22;6277;49.824;9.562;2022-09-28T00:34:07;12.10;71.90
12426;DHT22;6277;49.824;9.562;2022-09-28T00:36:33;12.10;71.80
12426;DHT22;6277;49.824;9.562;2022-09-28T00:39:03;12.10;71.80
12426;DHT22;6277;49.824;9.562;2022-09-28T00:41:29;12.10;71.90
12426;DHT22;6277;49.824;9.562;2022-09-28T00:46:45;12.20;72.10
12426;DHT22;6277;49.824;9.562;2022-09-28T00:49:14;12.20;71.80
12426;DHT22;6277;49.824;9.562;2022-09-28T00:51:43;12.20;71.90
12426;DHT22;6277;49.824;9.562;2022-09-28T00:54:10;12.20;71.80
12426;DHT22;6277;49.824;9.562;2022-09-28T00:56:37;12.20;71.80
12426;DHT22;6277;49.824;9.562;2022-09-28T00:59:05;12.20;71.80
12426;DHT22;6277;49.824;9.562;2022-09-28T01:01:32;12.20;71.90
12426;DHT22;6277;49.824;9.562;2022-09-28T01:03:58;12.30;71.80
12426;DHT22;6277;49.824;9.562;2022-09-28T01:06:29;12.30;71.80
12426;DHT22;6277;49.824;9.562;2022-09-28T01:08:58;12.30;71.90
12426;DHT22;6277;49.824;9.562;2022-09-28T01:11:24;12.30;71.90
12426;DHT22;6277;49.824;9.562;2022-09-28T01:13:53;12.30;71.80
12426;DHT22;6277;49.824;9.562;2022-09-28T01:21:24;12.40;72.00
12426;DHT22;6277;49.824;9.562;2022-09-28T01:26:52;12.40;71.80
12426;DHT22;6277;49.824;9.562;2022-09-28T01:37:25;12.50;71.90
12426;DHT22;6277;49.824;9.562;2022-09-28T01:39:54;12.50;71.90
12426;DHT22;6277;49.824;9.562;2022-09-28T01:42:26;12.50;71.90
12426;DHT22;6277;49.824;9.562;2022-09-28T01:44:56;12.50;71.90
12426;DHT22;6277;49.824;9.562;2022-09-28T01:47:26;12.50;71.90
12426;DHT22;6277;49.824;9.562;2022-09-28T01:50:09;12.50;71.90
12426;DHT22;6277;49.824;9.562;2022-09-28T01:52:56;12.50;71.90
12426;DHT22;6277;49.824;9.562;2022-09-28T01:55:28;12.50;72.10
12426;DHT22;6277;49.824;9.562;2022-09-28T01:58:06;12.50;72.20
12426;DHT22;6277;49.824;9.562;2022-09-28T02:00:37;12.50;71.90
12426;DHT22;6277;49.824;9.562;2022-09-28T02:03:13;12.50;71.90
12426;DHT22;6277;49.824;9.562;2022-09-28T02:05:56;12.50;71.90
12426;DHT22;6277;49.824;9.562;2022-09-28T02:08:30;12.50;71.90
12426;DHT22;6277;49.824;9.562;2022-09-28T02:11:11;12.50;71.80
12426;DHT22;6277;49.824;9.562;2022-09-28T02:14:00;12.50;71.90
12426;DHT22;6277;49.824;9.562;2022-09-28T02:16:40;12.50;71.90
12426;DHT22;6277;49.824;9.562;2022-09-28T02:19:12;12.50;71.90
12426;DHT22;6277;49.824;9.562;2022-09-28T02:21:51;12.40;71.80
12426;DHT22;6277;49.824;9.562;2022-09-28T02:26:50;12.40;71.80
12426;DHT22;6277;49.824;9.562;2022-09-28T02:29:16;12.40;71.80
12426;DHT22;6277;49.824;9.562;2022-09-28T02:31:42;12.40;71.80
12426;DHT22;6277;49.824;9.562;2022-09-28T02:34:08;12.40;71.90
12426;DHT22;6277;49.824;9.562;2022-09-28T02:36:34;12.40;72.00
12426;DHT22;6277;49.824;9.562;2022-09-28T02:39:00;12.40;71.90
12426;DHT22;6277;49.824;9.562;2022-09-28T02:44:38;12.40;72.10
12426;DHT22;6277;49.824;9.562;2022-09-28T02:56:17;12.30;72.10
12426;DHT22;6277;49.824;9.562;2022-09-28T03:01:53;12.30;72.00
12426;DHT22;6277;49.824;9.562;2022-09-28T03:04:46;12.30;72.00
12426;DHT22;6277;49.824;9.562;2022-09-28T03:07:27;12.30;72.10
12426;DHT22;6277;49.824;9.562;2022-09-28T03:10:04;12.30;72.00
12426;DHT22;6277;49.824;9.562;2022-09-28T03:12:32;12.40;72.10
12426;DHT22;6277;49.824;9.562;2022-09-28T03:15:11;12.40;72.00
12426;DHT22;6277;49.824;9.562;2022-09-28T03:17:37;12.40;72.20
12426;DHT22;6277;49.824;9.562;2022-09-28T03:20:04;12.40;72.10
12426;DHT22;6277;49.824;9.562;2022-09-28T03:22:30;12.40;72.10
12426;DHT22;6277;49.824;9.562;2022-09-28T03:24:55;12.30;72.00
12426;DHT22;6277;49.824;9.562;2022-09-28T03:27:21;12.40;72.20
12426;DHT22;6277;49.824;9.562;2022-09-28T03:29:46;12.40;72.10
12426;DHT22;6277;49.824;9.562;2022-09-28T03:32:12;12.40;72.10
12426;DHT22;6277;49.824;9.562;2022-09-28T03:34:37;12.40;72.10
12426;DHT22;6277;49.824;9.562;2022-09-28T03:37:03;12.40;72.00
12426;DHT22;6277;49.824;9.562;2022-09-28T03:39:28;12.40;72.10
12426;DHT22;6277;49.824;9.562;2022-09-28T03:41:55;12.40;72.10
12426;DHT22;6277;49.824;9.562;2022-09-28T03:44:20;12.40;72.10
12426;DHT22;6277;49.824;9.562;2022-09-28T03:46:46;12.50;72.20
12426;DHT22;6277;49.824;9.562;2022-09-28T03:49:11;12.50;72.30
12426;DHT22;6277;49.824;9.562;2022-09-28T03:51:37;12.50;72.30
12426;DHT22;6277;49.824;9.562;2022-09-28T03:54:03;12.50;72.30
12426;DHT22;6277;49.824;9.562;2022-09-28T03:56:28;12.50;72.30
12426;DHT22;6277;49.824;9.562;2022-09-28T03:58:54;12.50;72.40
12426;DHT22;6277;49.824;9.562;2022-09-28T04:01:19;12.50;72.40
12426;DHT22;6277;49.824;9.562;2022-09-28T04:03:46;12.60;72.50
12426;DHT22;6277;49.824;9.562;2022-09-28T04:06:11;12.60;72.40
12426;DHT22;6277;49.824;9.562;2022-09-28T04:08:37;12.60;72.30
12426;DHT22;6277;49.824;9.562;2022-09-28T04:11:03;12.60;72.20
12426;DHT22;6277;49.824;9.562;2022-09-28T04:13:29;12.60;72.20
12426;DHT22;6277;49.824;9.562;2022-09-28T04:15:58;12.60;72.30
12426;DHT22;6277;49.824;9.562;2022-09-28T04:18:24;12.60;72.40
12426;DHT22;6277;49.824;9.562;2022-09-28T04:21:07;12.60;72.30
12426;DHT22;6277;49.824;9.562;2022-09-28T04:23:35;12.60;72.40
12426;DHT22;6277;49.824;9.562;2022-09-28T04:26:02;12.60;72.30
12426;DHT22;6277;49.824;9.562;2022-09-28T04:28:28;12.60;72.30
12426;DHT22;6277;49.824;9.562;2022-09-28T04:31:17;12.60;72.40
12426;DHT22;6277;49.824;9.562;2022-09-28T04:33:42;12.60;72.50
12426;DHT22;6277;49.824;9.562;2022-09-28T04:36:08;12.60;72.50
12426;DHT22;6277;49.824;9.562;2022-09-28T04:38:35;12.60;72.50
12426;DHT22;6277;49.824;9.562;2022-09-28T04:41:01;12.60;72.60
12426;DHT22;6277;49.824;9.562;2022-09-28T04:43:26;12.60;72.50
12426;DHT22;6277;49.824;9.562;2022-09-28T04:45:57;12.70;72.40
12426;DHT22;6277;49.824;9.562;2022-09-28T04:48:23;12.70;72.50
12426;DHT22;6277;49.824;9.562;2022-09-28T04:50:53;12.60;72.30
12426;DHT22;6277;49.824;9.562;2022-09-28T04:53:19;12.60;72.20
12426;DHT22;6277;49.824;9.562;2022-09-28T04:55:54;12.60;72.00
12426;DHT22;6277;49.824;9.562;2022-09-28T04:58:19;12.50;72.00
12426;DHT22;6277;49.824;9.562;2022-09-28T05:00:45;12.50;72.00
12426;DHT22;6277;49.824;9.562;2022-09-28T05:03:11;12.50;72.10
12426;DHT22;6277;49.824;9.562;2022-09-28T05:05:43;12.40;72.00
12426;DHT22;6277;49.824;9.562;2022-09-28T05:08:08;12.40;71.90
12426;DHT22;6277;49.824;9.562;2022-09-28T05:10:34;12.30;71.70
12426;DHT22;6277;49.824;9.562;2022-09-28T05:13:00;12.30;71.60
12426;DHT22;6277;49.824;9.562;2022-09-28T05:15:26;12.20;71.50
12426;DHT22;6277;49.824;9.562;2022-09-28T05:17:52;12.10;72.10
12426;DHT22;6277;49.824;9.562;2022-09-28T05:20:17;12.00;71.50
12426;DHT22;6277;49.824;9.562;2022-09-28T05:22:43;12.00;71.80
12426;DHT22;6277;49.824;9.562;2022-09-28T05:25:08;11.90;71.80
12426;DHT22;6277;49.824;9.562;2022-09-28T05:27:34;11.80;71.90
12426;DHT22;6277;49.824;9.562;2022-09-28T05:29:59;11.80;71.90
12426;DHT22;6277;49.824;9.562;2022-09-28T05:32:25;11.70;72.00
12426;DHT22;6277;49.824;9.562;2022-09-28T05:34:50;11.70;72.10
12426;DHT22;6277;49.824;9.562;2022-09-28T05:37:16;11.70;72.10
12426;DHT22;6277;49.824;9.562;2022-09-28T05:39:41;11.70;72.10
12426;DHT22;6277;49.824;9.562;2022-09-28T05:42:07;11.60;72.10
12426;DHT22;6277;49.824;9.562;2022-09-28T05:44:32;11.50;72.20
12426;DHT22;6277;49.824;9.562;2022-09-28T05:46:58;11.50;72.20
12426;DHT22;6277;49.824;9.562;2022-09-28T05:49:23;11.50;72.20
12426;DHT22;6277;49.824;9.562;2022-09-28T05:51:49;11.40;72.30
12426;DHT22;6277;49.824;9.562;2022-09-28T05:54:14;11.40;72.20
12426;DHT22;6277;49.824;9.562;2022-09-28T05:56:40;11.30;72.30
12426;DHT22;6277;49.824;9.562;2022-09-28T05:59:05;11.30;72.40
12426;DHT22;6277;49.824;9.562;2022-09-28T06:01:31;11.30;72.40
12426;DHT22;6277;49.824;9.562;2022-09-28T06:03:56;11.20;72.40
12426;DHT22;6277;49.824;9.562;2022-09-28T06:06:22;11.20;72.40
12426;DHT22;6277;49.824;9.562;2022-09-28T06:08:47;11.10;72.50
12426;DHT22;6277;49.824;9.562;2022-09-28T06:11:13;11.10;72.60
12426;DHT22;6277;49.824;9.562;2022-09-28T06:13:39;11.10;72.70
12426;DHT22;6277;49.824;9.562;2022-09-28T06:16:08;11.10;72.90
12426;DHT22;6277;49.824;9.562;2022-09-28T06:18:38;11.10;72.90
12426;DHT22;6277;49.824;9.562;2022-09-28T06:21:05;11.10;72.90
12426;DHT22;6277;49.824;9.562;2022-09-28T06:23:35;11.10;73.00
12426;DHT22;6277;49.824;9.562;2022-09-28T06:26:00;11.10;73.20
12426;DHT22;6277;49.824;9.562;2022-09-28T06:28:26;11.10;73.30
12426;DHT22;6277;49.824;9.562;2022-09-28T06:30:51;11.10;73.50
12426;DHT22;6277;49.824;9.562;2022-09-28T06:33:17;11.20;73.70
12426;DHT22;6277;49.824;9.562;2022-09-28T06:35:43;11.20;74.10
12426;DHT22;6277;49.824;9.562;2022-09-28T06:38:08;11.30;74.20
12426;DHT22;6277;49.824;9.562;2022-09-28T06:40:34;11.40;74.30
12426;DHT22;6277;49.824;9.562;2022-09-28T06:43:08;11.40;74.00
12426;DHT22;6277;49.824;9.562;2022-09-28T06:45:36;11.50;74.00
12426;DHT22;6277;49.824;9.562;2022-09-28T06:48:02;11.60;73.90
12426;DHT22;6277;49.824;9.562;2022-09-28T06:50:30;11.70;73.90
12426;DHT22;6277;49.824;9.562;2022-09-28T06:52:59;11.70;73.80
12426;DHT22;6277;49.824;9.562;2022-09-28T06:55:26;11.80;73.80
12426;DHT22;6277;49.824;9.562;2022-09-28T06:58:03;11.90;73.70
12426;DHT22;6277;49.824;9.562;2022-09-28T07:00:31;11.90;73.50
12426;DHT22;6277;49.824;9.562;2022-09-28T07:03:01;12.00;73.30
12426;DHT22;6277;49.824;9.562;2022-09-28T07:05:27;12.00;73.20
12426;DHT22;6277;49.824;9.562;2022-09-28T07:07:57;12.00;73.10
12426;DHT22;6277;49.824;9.562;2022-09-28T07:10:27;12.00;73.20
12426;DHT22;6277;49.824;9.562;2022-09-28T07:12:54;12.00;73.00
12426;DHT22;6277;49.824;9.562;2022-09-28T07:15:20;12.10;72.90
12426;DHT22;6277;49.824;9.562;2022-09-28T07:17:46;12.10;72.90
12426;DHT22;6277;49.824;9.562;2022-09-28T07:20:12;12.10;72.90
12426;DHT22;6277;49.824;9.562;2022-09-28T07:22:38;12.10;72.90
12426;DHT22;6277;49.824;9.562;2022-09-28T07:25:05;12.20;72.90
12426;DHT22;6277;49.824;9.562;2022-09-28T07:27:31;12.20;72.80
12426;DHT22;6277;49.824;9.562;2022-09-28T07:29:56;12.30;72.80
12426;DHT22;6277;49.824;9.562;2022-09-28T07:32:23;12.30;72.90
12426;DHT22;6277;49.824;9.562;2022-09-28T07:34:48;12.40;73.10
12426;DHT22;6277;49.824;9.562;2022-09-28T07:37:15;12.40;73.10
12426;DHT22;6277;49.824;9.562;2022-09-28T07:39:43;12.50;72.90
12426;DHT22;6277;49.824;9.562;2022-09-28T07:42:47;12.60;72.80
12426;DHT22;6277;49.824;9.562;2022-09-28T07:45:13;12.70;72.90
12426;DHT22;6277;49.824;9.562;2022-09-28T07:47:38;12.80;73.00
12426;DHT22;6277;49.824;9.562;2022-09-28T07:50:04;12.80;72.70
12426;DHT22;6277;49.824;9.562;2022-09-28T07:52:30;13.00;72.60
12426;DHT22;6277;49.824;9.562;2022-09-28T07:54:56;13.00;72.40
12426;DHT22;6277;49.824;9.562;2022-09-28T08:10:57;13.40;70.70
12426;DHT22;6277;49.824;9.562;2022-09-28T08:13:23;13.50;71.00
12426;DHT22;6277;49.824;9.562;2022-09-28T08:15:59;13.50;71.60
12426;DHT22;6277;49.824;9.562;2022-09-28T08:18:25;13.60;70.60
12426;DHT22;6277;49.824;9.562;2022-09-28T08:20:51;13.60;71.40
12426;DHT22;6277;49.824;9.562;2022-09-28T08:23:35;13.60;71.20
12426;DHT22;6277;49.824;9.562;2022-09-28T08:26:02;13.70;71.30
12426;DHT22;6277;49.824;9.562;2022-09-28T08:28:28;13.70;71.20
12426;DHT22;6277;49.824;9.562;2022-09-28T08:30:54;13.80;71.20
12426;DHT22;6277;49.824;9.562;2022-09-28T08:33:19;13.80;70.80
12426;DHT22;6277;49.824;9.562;2022-09-28T08:35:57;13.80;70.80
12426;DHT22;6277;49.824;9.562;2022-09-28T08:38:27;13.90;70.50
12426;DHT22;6277;49.824;9.562;2022-09-28T08:46:19;14.10;70.30
12426;DHT22;6277;49.824;9.562;2022-09-28T08:51:31;14.30;70.40
12426;DHT22;6277;49.824;9.562;2022-09-28T08:54:27;14.30;70.30
12426;DHT22;6277;49.824;9.562;2022-09-28T08:56:53;14.30;70.10
12426;DHT22;6277;49.824;9.562;2022-09-28T08:59:25;14.40;70.10
12426;DHT22;6277;49.824;9.562;2022-09-28T09:02:00;14.40;69.60
12426;DHT22;6277;49.824;9.562;2022-09-28T09:04:28;14.50;69.80
12426;DHT22;6277;49.824;9.562;2022-09-28T09:07:17;14.60;70.10
12426;DHT22;6277;49.824;9.562;2022-09-28T09:09:58;14.60;69.40
12426;DHT22;6277;49.824;9.562;2022-09-28T09:12:46;14.70;69.40
12426;DHT22;6277;49.824;9.562;2022-09-28T09:15:20;14.80;69.30
12426;DHT22;6277;49.824;9.562;2022-09-28T09:20:36;14.80;68.50
12426;DHT22;6277;49.824;9.562;2022-09-28T09:25:45;14.70;68.40
12426;DHT22;6277;49.824;9.562;2022-09-28T09:31:07;14.80;67.90
12426;DHT22;6277;49.824;9.562;2022-09-28T09:36:30;14.90;68.00
12426;DHT22;6277;49.824;9.562;2022-09-28T09:42:18;15.00;66.90
12426;DHT22;6277;49.824;9.562;2022-09-28T09:47:40;15.00;66.10
12426;DHT22;6277;49.824;9.562;2022-09-28T09:50:26;15.00;66.30
12426;DHT22;6277;49.824;9.562;2022-09-28T09:53:04;14.90;66.00
12426;DHT22;6277;49.824;9.562;2022-09-28T09:55:41;14.90;66.50
12426;DHT22;6277;49.824;9.562;2022-09-28T09:58:17;14.80;66.10
12426;DHT22;6277;49.824;9.562;2022-09-28T10:00:44;14.70;66.10
12426;DHT22;6277;49.824;9.562;2022-09-28T10:03:27;14.60;66.20
12426;DHT22;6277;49.824;9.562;2022-09-28T10:06:34;14.50;65.90
12426;DHT22;6277;49.824;9.562;2022-09-28T10:09:27;14.40;66.30
12426;DHT22;6277;49.824;9.562;2022-09-28T10:11:54;14.40;66.60
12426;DHT22;6277;49.824;9.562;2022-09-28T10:14:24;14.40;67.80
12426;DHT22;6277;49.824;9.562;2022-09-28T10:16:51;14.50;67.40
12426;DHT22;6277;49.824;9.562;2022-09-28T10:19:20;14.60;67.50
12426;DHT22;6277;49.824;9.562;2022-09-28T10:21:48;14.80;67.60
12426;DHT22;6277;49.824;9.562;2022-09-28T10:24:21;14.90;67.80
12426;DHT22;6277;49.824;9.562;2022-09-28T10:26:52;15.10;68.00
12426;DHT22;6277;49.824;9.562;2022-09-28T10:29:20;15.30;67.90
12426;DHT22;6277;49.824;9.562;2022-09-28T10:31:49;15.50;67.90
12426;DHT22;6277;49.824;9.562;2022-09-28T10:34:17;15.70;67.40
12426;DHT22;6277;49.824;9.562;2022-09-28T10:36:55;15.80;66.50
12426;DHT22;6277;49.824;9.562;2022-09-28T10:41:54;15.90;65.60
12426;DHT22;6277;49.824;9.562;2022-09-28T10:44:21;15.90;65.40
12426;DHT22;6277;49.824;9.562;2022-09-28T10:46:55;15.90;65.20
12426;DHT22;6277;49.824;9.562;2022-09-28T10:49:21;15.90;64.60
12426;DHT22;6277;49.824;9.562;2022-09-28T10:51:51;16.00;65.30
12426;DHT22;6277;49.824;9.562;2022-09-28T10:54:26;16.00;65.00
12426;DHT22;6277;49.824;9.562;2022-09-28T10:56:53;16.00;64.90
12426;DHT22;6277;49.824;9.562;2022-09-28T11:02:03;16.10;64.70
12426;DHT22;6277;49.824;9.562;2022-09-28T11:04:41;16.20;64.90
12426;DHT22;6277;49.824;9.562;2022-09-28T11:07:43;16.20;64.90
12426;DHT22;6277;49.824;9.562;2022-09-28T11:10:21;16.30;64.30
12426;DHT22;6277;49.824;9.562;2022-09-28T11:12:48;16.40;64.10
12426;DHT22;6277;49.824;9.562;2022-09-28T11:15:30;16.40;64.50
12426;DHT22;6277;49.824;9.562;2022-09-28T11:18:17;16.40;63.60
12426;DHT22;6277;49.824;9.562;2022-09-28T11:20:44;16.40;63.30
12426;DHT22;6277;49.824;9.562;2022-09-28T11:23:29;16.30;63.70
12426;DHT22;6277;49.824;9.562;2022-09-28T11:26:00;16.40;63.20
12426;DHT22;6277;49.824;9.562;2022-09-28T11:28:35;16.40;64.10
12426;DHT22;6277;49.824;9.562;2022-09-28T11:31:02;16.50;64.20
12426;DHT22;6277;49.824;9.562;2022-09-28T11:33:41;16.60;65.00
12426;DHT22;6277;49.824;9.562;2022-09-28T11:41:22;17.10;63.70
12426;DHT22;6277;49.824;9.562;2022-09-28T11:49:31;17.40;62.70
12426;DHT22;6277;49.824;9.562;2022-09-28T11:55:35;17.50;62.00
12426;DHT22;6277;49.824;9.562;2022-09-28T11:57:44;17.50;62.00
12426;DHT22;6277;49.824;9.562;2022-09-28T12:00:14;17.50;61.20
12426;DHT22;6277;49.824;9.562;2022-09-28T12:05:24;17.40;61.40
12426;DHT22;6277;49.824;9.562;2022-09-28T12:07:57;17.30;60.20
12426;DHT22;6277;49.824;9.562;2022-09-28T12:13:05;17.30;61.30
12426;DHT22;6277;49.824;9.562;2022-09-28T12:15:42;17.20;59.50
12426;DHT22;6277;49.824;9.562;2022-09-28T12:18:24;17.10;60.60
12426;DHT22;6277;49.824;9.562;2022-09-28T12:20:58;17.10;60.90
12426;DHT22;6277;49.824;9.562;2022-09-28T12:23:33;17.20;61.40
12426;DHT22;6277;49.824;9.562;2022-09-28T12:26:22;17.30;61.50
12426;DHT22;6277;49.824;9.562;2022-09-28T12:28:53;17.40;61.00
12426;DHT22;6277;49.824;9.562;2022-09-28T12:31:49;17.50;61.90
12426;DHT22;6277;49.824;9.562;2022-09-28T12:34:16;17.60;61.60
12426;DHT22;6277;49.824;9.562;2022-09-28T12:37:01;17.70;61.50
12426;DHT22;6277;49.824;9.562;2022-09-28T12:39:48;17.80;60.50
12426;DHT22;6277;49.824;9.562;2022-09-28T12:43:36;17.80;60.90
12426;DHT22;6277;49.824;9.562;2022-09-28T12:48:43;17.90;59.10
12426;DHT22;6277;49.824;9.562;2022-09-28T12:51:29;17.90;59.90
12426;DHT22;6277;49.824;9.562;2022-09-28T12:59:31;18.00;58.10
12426;DHT22;6277;49.824;9.562;2022-09-28T13:10:36;17.50;57.60
12426;DHT22;6277;49.824;9.562;2022-09-28T13:13:27;17.30;57.70
12426;DHT22;6277;49.824;9.562;2022-09-28T13:18:35;17.20;58.90
12426;DHT22;6277;49.824;9.562;2022-09-28T13:23:45;17.30;59.20
12426;DHT22;6277;49.824;9.562;2022-09-28T13:28:51;17.40;58.60
12426;DHT22;6277;49.824;9.562;2022-09-28T13:31:24;17.50;59.00
12426;DHT22;6277;49.824;9.562;2022-09-28T13:33:56;17.50;58.70
12426;DHT22;6277;49.824;9.562;2022-09-28T13:38:56;17.50;57.90
12426;DHT22;6277;49.824;9.562;2022-09-28T13:41:38;17.60;58.20
12426;DHT22;6277;49.824;9.562;2022-09-28T13:59:57;18.10;56.40
12426;DHT22;6277;49.824;9.562;2022-09-28T14:02:32;18.10;57.00
12426;DHT22;6277;49.824;9.562;2022-09-28T14:05:05;18.20;56.70
12426;DHT22;6277;49.824;9.562;2022-09-28T14:08:27;18.20;56.50
12426;DHT22;6277;49.824;9.562;2022-09-28T14:10:57;18.10;54.50
12426;DHT22;6277;49.824;9.562;2022-09-28T14:16:28;18.00;56.10
12426;DHT22;6277;49.824;9.562;2022-09-28T14:21:59;17.90;55.70
12426;DHT22;6277;49.824;9.562;2022-09-28T14:30:52;17.60;55.30
12426;DHT22;6277;49.824;9.562;2022-09-28T14:36:06;17.30;55.70
12426;DHT22;6277;49.824;9.562;2022-09-28T14:38:47;17.30;55.50
12426;DHT22;6277;49.824;9.562;2022-09-28T14:41:38;17.20;55.50
12426;DHT22;6277;49.824;9.562;2022-09-28T14:44:12;17.10;56.10
12426;DHT22;6277;49.824;9.562;2022-09-28T14:46:47;17.10;56.00
12426;DHT22;6277;49.824;9.562;2022-09-28T14:51:44;17.10;56.60
12426;DHT22;6277;49.824;9.562;2022-09-28T14:54:25;17.20;57.10
12426;DHT22;6277;49.824;9.562;2022-09-28T15:04:20;17.40;55.50
12426;DHT22;6277;49.824;9.562;2022-09-28T15:06:50;17.30;55.90
12426;DHT22;6277;49.824;9.562;2022-09-28T15:09:33;17.20;55.60
12426;DHT22;6277;49.824;9.562;2022-09-28T15:12:04;17.10;55.30
12426;DHT22;6277;49.824;9.562;2022-09-28T15:14:34;17.00;55.50
12426;DHT22;6277;49.824;9.562;2022-09-28T15:17:07;17.00;55.90
12426;DHT22;6277;49.824;9.562;2022-09-28T15:22:02;16.80;55.80
12426;DHT22;6277;49.824;9.562;2022-09-28T15:24:31;16.70;56.60
12426;DHT22;6277;49.824;9.562;2022-09-28T15:26:58;16.60;56.00
12426;DHT22;6277;49.824;9.562;2022-09-28T15:29:23;16.60;56.10
12426;DHT22;6277;49.824;9.562;2022-09-28T15:31:52;16.50;56.20
12426;DHT22;6277;49.824;9.562;2022-09-28T15:34:35;16.50;56.40
12426;DHT22;6277;49.824;9.562;2022-09-28T15:37:25;16.50;55.90
12426;DHT22;6277;49.824;9.562;2022-09-28T15:39:53;16.50;56.30
12426;DHT22;6277;49.824;9.562;2022-09-28T15:42:19;16.50;56.50
12426;DHT22;6277;49.824;9.562;2022-09-28T15:47:56;16.50;56.20
12426;DHT22;6277;49.824;9.562;2022-09-28T15:50:36;16.50;56.70
12426;DHT22;6277;49.824;9.562;2022-09-28T15:53:04;16.50;56.70
12426;DHT22;6277;49.824;9.562;2022-09-28T15:55:39;16.50;56.40
12426;DHT22;6277;49.824;9.562;2022-09-28T15:58:18;16.50;56.20
12426;DHT22;6277;49.824;9.562;2022-09-28T16:00:45;16.50;56.20
12426;DHT22;6277;49.824;9.562;2022-09-28T16:03:19;16.50;56.30
12426;DHT22;6277;49.824;9.562;2022-09-28T16:06:09;16.40;56.20
12426;DHT22;6277;49.824;9.562;2022-09-28T16:13:57;16.40;56.10
12426;DHT22;6277;49.824;9.562;2022-09-28T16:16:29;16.40;56.20
12426;DHT22;6277;49.824;9.562;2022-09-28T16:18:57;16.40;56.50
12426;DHT22;6277;49.824;9.562;2022-09-28T16:21:44;16.40;56.50
12426;DHT22;6277;49.824;9.562;2022-09-28T16:24:25;16.40;56.10
12426;DHT22;6277;49.824;9.562;2022-09-28T16:26:58;16.40;56.20
12426;DHT22;6277;49.824;9.562;2022-09-28T16:31:52;16.30;56.50
12426;DHT22;6277;49.824;9.562;2022-09-28T16:34:24;16.30;56.60
12426;DHT22;6277;49.824;9.562;2022-09-28T16:36:51;16.30;56.40
12426;DHT22;6277;49.824;9.562;2022-09-28T16:39:17;16.30;56.60
12426;DHT22;6277;49.824;9.562;2022-09-28T16:41:54;16.20;56.50
12426;DHT22;6277;49.824;9.562;2022-09-28T16:44:25;16.20;56.40
12426;DHT22;6277;49.824;9.562;2022-09-28T16:46:52;16.20;56.50
12426;DHT22;6277;49.824;9.562;2022-09-28T16:49:20;16.10;56.50
12426;DHT22;6277;49.824;9.562;2022-09-28T16:51:48;16.10;56.60
12426;DHT22;6277;49.824;9.562;2022-09-28T16:54:22;16.00;56.60
12426;DHT22;6277;49.824;9.562;2022-09-28T16:57:08;16.00;56.70
12426;DHT22;6277;49.824;9.562;2022-09-28T16:59:34;15.90;56.70
12426;DHT22;6277;49.824;9.562;2022-09-28T17:02:13;15.90;56.70
12426;DHT22;6277;49.824;9.562;2022-09-28T17:04:39;15.80;56.60
12426;DHT22;6277;49.824;9.562;2022-09-28T17:07:05;15.80;56.70
12426;DHT22;6277;49.824;9.562;2022-09-28T17:09:30;15.70;56.80
12426;DHT22;6277;49.824;9.562;2022-09-28T17:11:56;15.60;56.70
12426;DHT22;6277;49.824;9.562;2022-09-28T17:14:23;15.50;56.80
12426;DHT22;6277;49.824;9.562;2022-09-28T17:16:50;15.40;56.80
12426;DHT22;6277;49.824;9.562;2022-09-28T17:19:23;15.40;56.90
12426;DHT22;6277;49.824;9.562;2022-09-28T17:21:50;15.20;56.90
12426;DHT22;6277;49.824;9.562;2022-09-28T17:24:16;15.10;56.90
12426;DHT22;6277;49.824;9.562;2022-09-28T17:26:43;15.00;57.00
12426;DHT22;6277;49.824;9.562;2022-09-28T17:29:11;14.90;57.10
12426;DHT22;6277;49.824;9.562;2022-09-28T17:31:40;14.80;57.10
12426;DHT22;6277;49.824;9.562;2022-09-28T17:34:06;14.70;57.20
12426;DHT22;6277;49.824;9.562;2022-09-28T17:36:32;14.50;57.10
12426;DHT22;6277;49.824;9.562;2022-09-28T17:38:58;14.40;57.20
12426;DHT22;6277;49.824;9.562;2022-09-28T17:41:24;14.20;57.30
12426;DHT22;6277;49.824;9.562;2022-09-28T17:43:50;14.10;57.40
12426;DHT22;6277;49.824;9.562;2022-09-28T17:46:36;13.90;57.50
12426;DHT22;6277;49.824;9.562;2022-09-28T17:49:04;13.70;58.00
12426;DHT22;6277;49.824;9.562;2022-09-28T17:51:32;13.60;57.90
12426;DHT22;6277;49.824;9.562;2022-09-28T17:53:59;13.50;58.70
12426;DHT22;6277;49.824;9.562;2022-09-28T17:56:26;13.30;58.30
12426;DHT22;6277;49.824;9.562;2022-09-28T17:58:52;13.20;58.50
12426;DHT22;6277;49.824;9.562;2022-09-28T18:01:18;13.10;58.80
12426;DHT22;6277;49.824;9.562;2022-09-28T18:03:44;13.00;58.90
12426;DHT22;6277;49.824;9.562;2022-09-28T18:06:13;12.90;59.10
12426;DHT22;6277;49.824;9.562;2022-09-28T18:08:41;12.90;59.40
12426;DHT22;6277;49.824;9.562;2022-09-28T18:11:08;12.90;59.50
12426;DHT22;6277;49.824;9.562;2022-09-28T18:13:34;12.90;59.50
12426;DHT22;6277;49.824;9.562;2022-09-28T18:16:00;12.80;59.40
12426;DHT22;6277;49.824;9.562;2022-09-28T18:18:25;12.80;59.50
12426;DHT22;6277;49.824;9.562;2022-09-28T18:20:51;12.70;59.60
12426;DHT22;6277;49.824;9.562;2022-09-28T18:23:17;12.70;59.70
12426;DHT22;6277;49.824;9.562;2022-09-28T18:25:44;12.70;59.80
12426;DHT22;6277;49.824;9.562;2022-09-28T18:28:11;12.60;59.80
12426;DHT22;6277;49.824;9.562;2022-09-28T18:30:38;12.60;59.90
12426;DHT22;6277;49.824;9.562;2022-09-28T18:33:05;12.60;59.90
12426;DHT22;6277;49.824;9.562;2022-09-28T18:35:31;12.50;59.90
12426;DHT22;6277;49.824;9.562;2022-09-28T18:37:56;12.50;59.90
12426;DHT22;6277;49.824;9.562;2022-09-28T18:40:22;12.50;60.00
12426;DHT22;6277;49.824;9.562;2022-09-28T18:42:49;12.40;60.10
12426;DHT22;6277;49.824;9.562;2022-09-28T18:45:15;12.40;60.20
12426;DHT22;6277;49.824;9.562;2022-09-28T18:47:41;12.30;60.10
12426;DHT22;6277;49.824;9.562;2022-09-28T18:50:08;12.20;60.20
12426;DHT22;6277;49.824;9.562;2022-09-28T18:52:37;12.20;60.20
12426;DHT22;6277;49.824;9.562;2022-09-28T18:55:04;12.10;60.30
12426;DHT22;6277;49.824;9.562;2022-09-28T18:57:30;12.10;60.50
12426;DHT22;6277;49.824;9.562;2022-09-28T18:59:58;12.00;60.40
12426;DHT22;6277;49.824;9.562;2022-09-28T19:02:23;11.90;60.50
12426;DHT22;6277;49.824;9.562;2022-09-28T19:04:49;11.90;60.60
12426;DHT22;6277;49.824;9.562;2022-09-28T19:07:15;11.80;60.60
12426;DHT22;6277;49.824;9.562;2022-09-28T19:09:41;11.80;60.70
12426;DHT22;6277;49.824;9.562;2022-09-28T19:12:12;11.80;60.80
12426;DHT22;6277;49.824;9.562;2022-09-28T19:14:38;11.70;60.90